createdAt,value
2018-02-24T00:00:54.088Z,0
2018-02-24T00:02:05.092Z,0
2018-02-24T00:03:16.975Z,0
2018-02-24T00:04:27.616Z,0
2018-02-24T00:05:38.541Z,0
2018-02-24T00:06:49.339Z,0
2018-02-24T00:07:59.631Z,0
2018-02-24T00:09:10.075Z,0
2018-02-24T00:10:22.002Z,0
2018-02-24T00:11:32.851Z,0
2018-02-24T00:12:43.619Z,0
2018-02-24T00:13:54.207Z,0
2018-02-24T00:15:04.957Z,0
2018-02-24T00:16:15.862Z,0
2018-02-24T00:17:26.400Z,0
2018-02-24T00:18:36.850Z,0
2018-02-24T00:19:47.309Z,0
2018-02-24T00:20:57.867Z,0
2018-02-24T00:22:08.599Z,0
2018-02-24T00:23:19.145Z,0
2018-02-24T00:24:30.832Z,0
2018-02-24T00:25:40.919Z,0
2018-02-24T00:26:50.639Z,0
2018-02-24T00:28:01.451Z,0
2018-02-24T00:29:11.834Z,0
2018-02-24T00:30:22.058Z,0
2018-02-24T00:31:32.548Z,0
2018-02-24T00:32:43.899Z,0
2018-02-24T00:33:54.733Z,0
2018-02-24T00:35:05.038Z,0
2018-02-24T00:36:15.336Z,0
2018-02-24T00:37:25.463Z,0
2018-02-24T00:38:36.312Z,0
2018-02-24T00:39:46.763Z,0
2018-02-24T00:40:57.206Z,0
2018-02-24T00:42:08.032Z,0
2018-02-24T00:43:18.596Z,0
2018-02-24T00:44:29.419Z,0
2018-02-24T00:45:39.969Z,0
2018-02-24T00:46:50.741Z,0
2018-02-24T00:48:01.499Z,0
2018-02-24T00:49:12.344Z,0
2018-02-24T00:50:22.839Z,0
2018-02-24T00:51:33.699Z,0
2018-02-24T00:52:43.915Z,0
2018-02-24T00:53:54.829Z,0
2018-02-24T00:55:05.727Z,0
2018-02-24T00:56:16.461Z,0
2018-02-24T00:57:26.960Z,0
2018-02-24T00:58:37.549Z,0
2018-02-24T00:59:48.072Z,0
2018-02-24T01:00:59.034Z,0
2018-02-24T01:02:09.452Z,0
2018-02-24T01:03:19.824Z,0
2018-02-24T01:04:30.352Z,0
2018-02-24T01:05:41.328Z,0
2018-02-24T01:06:51.954Z,0
2018-02-24T01:08:02.921Z,0
2018-02-24T01:09:13.316Z,0
2018-02-24T01:10:24.185Z,0
2018-02-24T01:11:35.234Z,0
2018-02-24T01:12:45.757Z,0
2018-02-24T01:13:56.458Z,0
2018-02-24T01:15:07.140Z,0
2018-02-24T01:16:18.172Z,0
2018-02-24T01:17:29.041Z,0
2018-02-24T01:18:39.188Z,0
2018-02-24T01:19:49.640Z,0
2018-02-24T01:21:01.520Z,0
2018-02-24T01:22:11.847Z,0
2018-02-24T01:23:22.460Z,0
2018-02-24T01:24:33.377Z,0
2018-02-24T01:25:43.951Z,0
2018-02-24T01:26:54.899Z,0
2018-02-24T01:28:05.786Z,0
2018-02-24T01:29:16.641Z,0
2018-02-24T01:30:27.131Z,0
2018-02-24T01:31:37.318Z,0
2018-02-24T01:32:47.864Z,0
2018-02-24T01:33:59.496Z,0
2018-02-24T01:35:09.883Z,0
2018-02-24T01:36:20.647Z,0
2018-02-24T01:37:31.206Z,0
2018-02-24T01:38:41.733Z,0
2018-02-24T01:39:51.932Z,0
2018-02-24T01:41:02.861Z,0
2018-02-24T01:42:13.660Z,0
2018-02-24T01:43:23.789Z,0
2018-02-24T01:44:34.671Z,0
2018-02-24T01:45:45.545Z,0
2018-02-24T01:46:56.184Z,0
2018-02-24T01:48:08.105Z,0
2018-02-24T01:49:18.396Z,0
2018-02-24T01:50:29.405Z,0
2018-02-24T01:51:40.235Z,0
2018-02-24T01:52:50.955Z,0
2018-02-24T01:54:01.791Z,0
2018-02-24T01:55:13.212Z,0
2018-02-24T01:56:23.543Z,0
2018-02-24T01:57:34.035Z,0
2018-02-24T01:58:44.901Z,0
2018-02-24T01:59:55.752Z,0
2018-02-24T02:01:06.226Z,0
2018-02-24T02:02:16.710Z,0
2018-02-24T02:03:26.868Z,0
2018-02-24T02:04:37.385Z,0
2018-02-24T02:05:47.998Z,0
2018-02-24T02:06:58.185Z,0
2018-02-24T02:08:09.060Z,0
2018-02-24T02:09:19.587Z,0
2018-02-24T02:10:30.378Z,0
2018-02-24T02:11:40.926Z,0
2018-02-24T02:12:51.522Z,0
2018-02-24T02:14:02.498Z,0
2018-02-24T02:15:13.319Z,0
2018-02-24T02:16:24.209Z,0
2018-02-24T02:17:34.605Z,0
2018-02-24T02:18:46.463Z,0
2018-02-24T02:19:56.935Z,0
2018-02-24T02:21:07.439Z,0
2018-02-24T02:22:18.116Z,0
2018-02-24T02:23:28.631Z,0
2018-02-24T02:24:38.904Z,0
2018-02-24T02:25:49.274Z,0
2018-02-24T02:27:00.042Z,0
2018-02-24T02:28:10.710Z,0
2018-02-24T02:29:21.706Z,0
2018-02-24T02:30:32.423Z,0
2018-02-24T02:31:43.238Z,0
2018-02-24T02:32:54.047Z,0
2018-02-24T02:34:05.157Z,0
2018-02-24T02:35:15.565Z,0
2018-02-24T02:36:26.400Z,0
2018-02-24T02:37:37.322Z,0
2018-02-24T02:38:48.191Z,0
2018-02-24T02:39:59.087Z,0
2018-02-24T02:41:10.133Z,0
2018-02-24T02:42:20.912Z,0
2018-02-24T02:43:31.453Z,0
2018-02-24T02:44:41.845Z,0
2018-02-24T02:45:52.404Z,0
2018-02-24T02:47:03.443Z,0
2018-02-24T02:48:14.438Z,0
2018-02-24T02:49:25.757Z,0
2018-02-24T02:50:36.210Z,0
2018-02-24T02:51:46.919Z,0
2018-02-24T02:52:57.419Z,0
2018-02-24T02:54:08.227Z,0
2018-02-24T02:55:18.742Z,0
2018-02-24T02:56:29.796Z,0
2018-02-24T02:57:39.934Z,0
2018-02-24T02:58:50.551Z,0
2018-02-24T03:00:01.335Z,0
2018-02-24T03:01:11.631Z,0
2018-02-24T03:02:21.341Z,0
2018-02-24T03:03:31.154Z,0
2018-02-24T03:04:41.679Z,0
2018-02-24T03:05:51.938Z,0
2018-02-24T03:07:02.017Z,0
2018-02-24T03:08:12.520Z,0
2018-02-24T03:09:22.784Z,0
2018-02-24T03:10:33.636Z,0
2018-02-24T03:11:44.315Z,0
2018-02-24T03:12:54.629Z,0
2018-02-24T03:14:05.309Z,0
2018-02-24T03:15:15.676Z,0
2018-02-24T03:16:27.008Z,0
2018-02-24T03:17:37.794Z,0
2018-02-24T03:18:48.265Z,0
2018-02-24T03:19:58.646Z,0
2018-02-24T03:21:09.471Z,0
2018-02-24T03:22:20.211Z,0
2018-02-24T03:23:30.781Z,0
2018-02-24T03:24:40.785Z,0
2018-02-24T03:25:51.592Z,0
2018-02-24T03:27:01.577Z,0
2018-02-24T03:28:11.742Z,0
2018-02-24T03:29:22.353Z,0
2018-02-24T03:30:33.222Z,0
2018-02-24T03:31:43.250Z,0
2018-02-24T03:32:53.570Z,0
2018-02-24T03:34:04.159Z,0
2018-02-24T03:35:14.337Z,0
2018-02-24T03:36:25.103Z,0
2018-02-24T03:37:36.792Z,0
2018-02-24T03:38:47.149Z,0
2018-02-24T03:39:57.644Z,0
2018-02-24T03:41:07.790Z,0
2018-02-24T03:42:18.004Z,0
2018-02-24T03:43:28.653Z,0
2018-02-24T03:44:39.552Z,0
2018-02-24T03:45:50.356Z,0
2018-02-24T03:47:01.205Z,0
2018-02-24T03:48:11.441Z,0
2018-02-24T03:49:21.967Z,0
2018-02-24T03:50:32.697Z,0
2018-02-24T03:51:43.507Z,0
2018-02-24T03:52:54.316Z,0
2018-02-24T03:54:05.048Z,0
2018-02-24T03:55:15.789Z,0
2018-02-24T03:56:26.565Z,0
2018-02-24T03:57:37.590Z,0
2018-02-24T03:58:48.205Z,0
2018-02-24T03:59:59.308Z,0
2018-02-24T04:01:09.875Z,0
2018-02-24T04:02:20.642Z,0
2018-02-24T04:03:31.558Z,0
2018-02-24T04:04:42.172Z,0
2018-02-24T04:05:53.240Z,0
2018-02-24T04:07:03.928Z,0
2018-02-24T04:08:14.607Z,0
2018-02-24T04:09:25.937Z,0
2018-02-24T04:10:36.776Z,0
2018-02-24T04:11:47.224Z,0
2018-02-24T04:12:58.366Z,0
2018-02-24T04:14:09.079Z,0
2018-02-24T04:15:20.082Z,0
2018-02-24T04:16:31.219Z,0
2018-02-24T04:17:41.272Z,0
2018-02-24T04:18:51.865Z,0
2018-02-24T04:20:02.532Z,0
2018-02-24T04:21:13.322Z,0
2018-02-24T04:22:24.211Z,0
2018-02-24T04:23:35.181Z,0
2018-02-24T04:24:45.954Z,0
2018-02-24T04:25:57.191Z,0
2018-02-24T04:27:08.245Z,0
2018-02-24T04:28:18.841Z,0
2018-02-24T04:29:29.671Z,0
2018-02-24T04:30:40.337Z,0
2018-02-24T04:31:51.423Z,0
2018-02-24T04:33:01.436Z,0
2018-02-24T04:34:12.496Z,0
2018-02-24T04:35:23.609Z,0
2018-02-24T04:36:33.977Z,0
2018-02-24T04:37:44.724Z,0
2018-02-24T04:38:55.756Z,0
2018-02-24T04:40:06.757Z,0
2018-02-24T04:41:17.595Z,0
2018-02-24T04:42:28.311Z,0
2018-02-24T04:43:39.449Z,0
2018-02-24T04:44:50.444Z,0
2018-02-24T04:46:01.604Z,0
2018-02-24T04:47:12.520Z,0
2018-02-24T04:48:23.297Z,0
2018-02-24T04:49:34.544Z,0
2018-02-24T04:50:45.574Z,0
2018-02-24T04:51:56.338Z,0
2018-02-24T04:53:07.093Z,0
2018-02-24T04:54:18.406Z,0
2018-02-24T04:55:29.347Z,0
2018-02-24T04:56:39.328Z,0
2018-02-24T04:57:50.444Z,0
2018-02-24T04:59:01.492Z,0
2018-02-24T05:00:12.707Z,0
2018-02-24T05:01:23.481Z,0
2018-02-24T05:02:34.453Z,0
2018-02-24T05:03:45.472Z,0
2018-02-24T05:04:56.703Z,0
2018-02-24T05:06:07.773Z,0
2018-02-24T05:07:18.959Z,0
2018-02-24T05:08:30.014Z,0
2018-02-24T05:09:41.042Z,0
2018-02-24T05:10:52.202Z,0
2018-02-24T05:12:03.242Z,0
2018-02-24T05:13:13.902Z,0
2018-02-24T05:14:24.869Z,0
2018-02-24T05:15:36.027Z,0
2018-02-24T05:16:46.873Z,0
2018-02-24T05:17:57.562Z,0
2018-02-24T05:19:08.633Z,0
2018-02-24T05:20:19.586Z,0
2018-02-24T05:21:31.216Z,0
2018-02-24T05:22:42.219Z,0
2018-02-24T05:23:53.210Z,0
2018-02-24T05:25:04.026Z,0
2018-02-24T05:26:15.034Z,0
2018-02-24T05:27:25.601Z,0
2018-02-24T05:28:36.296Z,0
2018-02-24T05:29:47.263Z,0
2018-02-24T05:30:58.367Z,0
2018-02-24T05:32:09.065Z,0
2018-02-24T05:33:19.792Z,0
2018-02-24T05:34:30.704Z,0
2018-02-24T05:35:41.264Z,0
2018-02-24T05:36:52.152Z,0
2018-02-24T05:38:03.085Z,0
2018-02-24T05:39:13.983Z,0
2018-02-24T05:40:24.776Z,0
2018-02-24T05:41:35.352Z,0
2018-02-24T05:42:46.353Z,4
2018-02-24T05:43:56.569Z,0
2018-02-24T05:45:07.461Z,4
2018-02-24T05:46:18.486Z,0
2018-02-24T05:47:28.742Z,4
2018-02-24T05:48:39.585Z,4
2018-02-24T05:49:50.376Z,8
2018-02-24T05:51:01.259Z,8
2018-02-24T05:52:11.749Z,8
2018-02-24T05:53:22.591Z,8
2018-02-24T05:54:33.651Z,12
2018-02-24T05:55:44.385Z,12
2018-02-24T05:56:54.312Z,16
2018-02-24T05:58:04.737Z,20
2018-02-24T05:59:15.187Z,24
2018-02-24T06:00:25.357Z,28
2018-02-24T06:01:36.137Z,36
2018-02-24T06:02:47.077Z,40
2018-02-24T06:03:58.014Z,44
2018-02-24T06:05:09.040Z,52
2018-02-24T06:06:19.873Z,60
2018-02-24T06:07:30.745Z,68
2018-02-24T06:08:41.228Z,76
2018-02-24T06:09:52.039Z,84
2018-02-24T06:11:02.579Z,92
2018-02-24T06:12:13.319Z,100
2018-02-24T06:13:23.707Z,116
2018-02-24T06:14:34.505Z,132
2018-02-24T06:15:45.394Z,136
2018-02-24T06:16:56.509Z,140
2018-02-24T06:18:07.057Z,148
2018-02-24T06:19:17.974Z,164
2018-02-24T06:20:29.712Z,168
2018-02-24T06:21:40.167Z,176
2018-02-24T06:22:50.381Z,176
2018-02-24T06:24:01.212Z,156
2018-02-24T06:25:11.573Z,176
2018-02-24T06:26:21.941Z,216
2018-02-24T06:27:31.636Z,260
2018-02-24T06:28:41.512Z,284
2018-02-24T06:29:51.713Z,292
2018-02-24T06:31:01.884Z,332
2018-02-24T06:32:12.009Z,320
2018-02-24T06:33:22.122Z,364
2018-02-24T06:34:32.277Z,360
2018-02-24T06:35:42.534Z,376
2018-02-24T06:36:52.501Z,416
2018-02-24T06:38:02.610Z,480
2018-02-24T06:39:12.599Z,520
2018-02-24T06:40:22.742Z,556
2018-02-24T06:41:32.617Z,608
2018-02-24T06:42:42.918Z,588
2018-02-24T06:43:53.129Z,640
2018-02-24T06:45:03.016Z,684
2018-02-24T06:46:13.149Z,672
2018-02-24T06:47:23.365Z,588
2018-02-24T06:48:33.543Z,668
2018-02-24T06:49:43.713Z,632
2018-02-24T06:50:53.313Z,624
2018-02-24T06:52:03.681Z,704
2018-02-24T06:53:13.853Z,768
2018-02-24T06:54:24.021Z,800
2018-02-24T06:55:33.638Z,944
2018-02-24T06:56:43.552Z,916
2018-02-24T06:57:53.803Z,924
2018-02-24T06:59:04.001Z,948
2018-02-24T07:00:13.817Z,1132
2018-02-24T07:01:24.012Z,1280
2018-02-24T07:02:34.171Z,1084
2018-02-24T07:03:44.047Z,1004
2018-02-24T07:04:54.192Z,1068
2018-02-24T07:06:04.349Z,1096
2018-02-24T07:07:13.945Z,1116
2018-02-24T07:08:24.254Z,1132
2018-02-24T07:09:34.616Z,1192
2018-02-24T07:10:44.842Z,1256
2018-02-24T07:11:54.464Z,1300
2018-02-24T07:13:04.705Z,1316
2018-02-24T07:14:14.603Z,1352
2018-02-24T07:15:24.593Z,1412
2018-02-24T07:16:34.988Z,1556
2018-02-24T07:17:44.772Z,1732
2018-02-24T07:18:54.948Z,1804
2018-02-24T07:20:04.872Z,2008
2018-02-24T07:21:14.554Z,2480
2018-02-24T07:22:24.722Z,2668
2018-02-24T07:23:34.876Z,2604
2018-02-24T07:24:45.097Z,2644
2018-02-24T07:25:55.279Z,2804
2018-02-24T07:27:05.499Z,2832
2018-02-24T07:28:15.036Z,2404
2018-02-24T07:29:25.161Z,1996
2018-02-24T07:30:35.278Z,1896
2018-02-24T07:31:45.466Z,1552
2018-02-24T07:32:55.666Z,1360
2018-02-24T07:34:05.906Z,1172
2018-02-24T07:35:15.566Z,876
2018-02-24T07:36:25.778Z,892
2018-02-24T07:37:36.028Z,944
2018-02-24T07:38:46.205Z,944
2018-02-24T07:39:56.436Z,1136
2018-02-24T07:41:06.350Z,1164
2018-02-24T07:42:16.239Z,1220
2018-02-24T07:43:26.392Z,1664
2018-02-24T07:44:36.303Z,2056
2018-02-24T07:45:46.094Z,2548
2018-02-24T07:46:56.349Z,2624
2018-02-24T07:48:06.608Z,2712
2018-02-24T07:49:16.734Z,2184
2018-02-24T07:50:26.963Z,1880
2018-02-24T07:51:37.167Z,2132
2018-02-24T07:52:47.436Z,2356
2018-02-24T07:53:57.065Z,2616
2018-02-24T07:55:07.185Z,2900
2018-02-24T07:56:17.313Z,3048
2018-02-24T07:57:27.459Z,3268
2018-02-24T07:58:37.369Z,3436
2018-02-24T07:59:47.515Z,3692
2018-02-24T08:00:57.649Z,3936
2018-02-24T08:02:07.531Z,4116
2018-02-24T08:03:17.660Z,4552
2018-02-24T08:04:27.180Z,5112
2018-02-24T08:05:37.412Z,4948
2018-02-24T08:06:47.559Z,5044
2018-02-24T08:07:57.469Z,5452
2018-02-24T08:09:07.070Z,5356
2018-02-24T08:10:18.254Z,4920
2018-02-24T08:11:27.979Z,5796
2018-02-24T08:12:38.252Z,6664
2018-02-24T08:13:48.486Z,6620
2018-02-24T08:14:58.690Z,6592
2018-02-24T08:16:09.886Z,6712
2018-02-24T08:17:20.200Z,7120
2018-02-24T08:18:30.391Z,6908
2018-02-24T08:19:40.539Z,7248
2018-02-24T08:20:50.455Z,7684
2018-02-24T08:22:00.585Z,8116
2018-02-24T08:23:10.713Z,8352
2018-02-24T08:24:20.932Z,8288
2018-02-24T08:25:30.873Z,7960
2018-02-24T08:26:41.023Z,7772
2018-02-24T08:27:51.198Z,7856
2018-02-24T08:29:01.158Z,8016
2018-02-24T08:30:11.320Z,7948
2018-02-24T08:31:21.214Z,7788
2018-02-24T08:32:30.864Z,8632
2018-02-24T08:33:41.007Z,9856
2018-02-24T08:34:52.144Z,10896
2018-02-24T08:36:02.069Z,11520
2018-02-24T08:37:12.232Z,11520
2018-02-24T08:38:22.373Z,11708
2018-02-24T08:39:32.142Z,14040
2018-02-24T08:40:42.290Z,16256
2018-02-24T08:41:52.457Z,17312
2018-02-24T08:43:02.340Z,17088
2018-02-24T08:44:12.509Z,16640
2018-02-24T08:45:22.652Z,12892
2018-02-24T08:46:32.781Z,15296
2018-02-24T08:47:42.603Z,20256
2018-02-24T08:48:52.821Z,26944
2018-02-24T08:50:02.728Z,12584
2018-02-24T08:51:12.874Z,10876
2018-02-24T08:52:22.743Z,10524
2018-02-24T08:53:32.673Z,8996
2018-02-24T08:54:41.936Z,9080
2018-02-24T08:55:51.732Z,24608
2018-02-24T08:57:01.919Z,33728
2018-02-24T08:58:12.077Z,10432
2018-02-24T08:59:22.265Z,10824
2018-02-24T09:00:31.832Z,11116
2018-02-24T09:01:41.893Z,12564
2018-02-24T09:02:51.694Z,10848
2018-02-24T09:04:01.909Z,8536
2018-02-24T09:05:11.709Z,34400
2018-02-24T09:06:21.667Z,41376
2018-02-24T09:07:32.128Z,43008
2018-02-24T09:08:42.274Z,41312
2018-02-24T09:09:52.419Z,42944
2018-02-24T09:11:02.223Z,40768
2018-02-24T09:12:12.423Z,12092
2018-02-24T09:13:22.605Z,21824
2018-02-24T09:14:32.489Z,35072
2018-02-24T09:15:42.414Z,43360
2018-02-24T09:16:52.637Z,41440
2018-02-24T09:18:02.867Z,37440
2018-02-24T09:19:12.959Z,27936
2018-02-24T09:20:22.621Z,25024
2018-02-24T09:21:32.742Z,36864
2018-02-24T09:22:42.960Z,12904
2018-02-24T09:23:53.105Z,10012
2018-02-24T09:25:02.734Z,42496
2018-02-24T09:26:12.618Z,37856
2018-02-24T09:27:22.495Z,38624
2018-02-24T09:28:32.483Z,38688
2018-02-24T09:29:42.682Z,38272
2018-02-24T09:30:52.661Z,43104
2018-02-24T09:32:02.861Z,45056
2018-02-24T09:33:12.859Z,43936
2018-02-24T09:34:22.665Z,46560
2018-02-24T09:35:32.826Z,48448
2018-02-24T09:36:43.077Z,45504
2018-02-24T09:37:53.005Z,41216
2018-02-24T09:39:03.137Z,36896
2018-02-24T09:40:13.391Z,38560
2018-02-24T09:41:23.171Z,45216
2018-02-24T09:42:33.215Z,49728
2018-02-24T09:43:43.692Z,53760
2018-02-24T09:44:53.908Z,54496
2018-02-24T09:46:04.068Z,45920
2018-02-24T09:47:14.258Z,50336
2018-02-24T09:48:23.765Z,46944
2018-02-24T09:49:33.936Z,48448
2018-02-24T09:50:43.887Z,53600
2018-02-24T09:51:54.082Z,56416
2018-02-24T09:53:03.961Z,51264
2018-02-24T09:54:14.177Z,47616
2018-02-24T09:55:25.583Z,49216
2018-02-24T10:01:39.498Z,54688
2018-02-24T10:02:49.715Z,53312
2018-02-24T10:03:59.880Z,54176
2018-02-24T10:05:10.081Z,50144
2018-02-24T10:06:20.254Z,42816
2018-02-24T10:07:30.462Z,44128
2018-02-24T10:08:40.658Z,49184
2018-02-24T10:09:50.847Z,50784
2018-02-24T10:11:01.055Z,47264
2018-02-24T10:12:11.139Z,49856
2018-02-24T10:13:21.530Z,49056
2018-02-24T10:14:31.736Z,48480
2018-02-24T10:15:41.932Z,51200
2018-02-24T10:16:52.187Z,56352
2018-02-24T10:18:02.350Z,51872
2018-02-24T10:19:12.522Z,47808
2018-02-24T10:20:22.378Z,51264
2018-02-24T10:21:32.933Z,45664
2018-02-24T10:22:42.729Z,39488
2018-02-24T10:23:52.642Z,43200
2018-02-24T10:25:03.149Z,42208
2018-02-24T10:26:13.340Z,38816
2018-02-24T10:27:23.235Z,38976
2018-02-24T10:28:33.466Z,41632
2018-02-24T10:29:43.704Z,45568
2018-02-24T10:30:53.860Z,50784
2018-02-24T10:32:04.059Z,44128
2018-02-24T10:33:14.244Z,48832
2018-02-24T10:34:24.585Z,49600
2018-02-24T10:35:34.763Z,48928
2018-02-24T10:36:44.561Z,47520
2018-02-24T10:37:54.810Z,48256
2018-02-24T10:39:05.019Z,53024
2018-02-24T10:40:15.206Z,41344
2018-02-24T10:41:25.444Z,34592
2018-02-24T10:42:35.648Z,43744
2018-02-24T10:43:45.826Z,42048
2018-02-24T10:44:56.244Z,51040
2018-02-24T10:46:06.276Z,54880
2018-02-24T10:47:16.477Z,53632
2018-02-24T10:48:26.420Z,55840
2018-02-24T10:49:36.750Z,42240
2018-02-24T10:50:46.592Z,46560
2018-02-24T10:51:56.794Z,46720
2018-02-24T10:53:06.990Z,48544
2018-02-24T10:54:16.940Z,46528
2018-02-24T10:55:26.491Z,44608
2018-02-24T10:56:36.423Z,40192
2018-02-24T10:57:46.656Z,36544
2018-02-24T10:58:56.833Z,32480
2018-02-24T11:00:07.064Z,33152
2018-02-24T11:01:17.237Z,33920
2018-02-24T11:02:28.413Z,35232
2018-02-24T11:03:38.612Z,47200
2018-02-24T11:04:48.544Z,47264
2018-02-24T11:05:58.991Z,50592
2018-02-24T11:07:08.896Z,56064
2018-02-24T11:08:19.069Z,51264
2018-02-24T11:09:29.273Z,62432
2018-02-24T11:10:39.188Z,67520
2018-02-24T11:11:49.129Z,61344
2018-02-24T11:12:59.385Z,50592
2018-02-24T11:14:09.037Z,52768
2018-02-24T11:15:19.208Z,52928
2018-02-24T11:16:29.398Z,48544
2018-02-24T11:17:39.578Z,53664
2018-02-24T11:18:49.796Z,57536
2018-02-24T11:19:59.988Z,51712
2018-02-24T11:21:10.184Z,51392
2018-02-24T11:22:51.812Z,60608
2018-02-24T11:24:02.037Z,59328
2018-02-24T11:25:12.310Z,60704
2018-02-24T11:26:22.217Z,55168
2018-02-24T11:27:32.250Z,57952
2018-02-24T11:28:42.460Z,63904
2018-02-24T11:29:52.736Z,59008
2018-02-24T11:32:17.206Z,57984
2018-02-24T11:33:27.386Z,49728
2018-02-24T11:34:36.985Z,53408
2018-02-24T11:35:47.138Z,54560
2018-02-24T11:36:57.330Z,58656
2018-02-24T11:38:07.253Z,62944
2018-02-24T11:39:17.486Z,57440
2018-02-24T11:40:27.394Z,59328
2018-02-24T11:41:37.590Z,64320
2018-02-24T11:42:47.838Z,53728
2018-02-24T11:43:57.751Z,33568
2018-02-24T11:46:20.847Z,58880
2018-02-24T11:47:32.288Z,57440
2018-02-24T11:48:42.697Z,63968
2018-02-24T11:49:54.114Z,64064
2018-02-24T11:51:03.946Z,61408
2018-02-24T11:52:13.556Z,58816
2018-02-24T11:53:24.336Z,44448
2018-02-24T11:54:34.535Z,26528
2018-02-24T11:55:44.898Z,39104
2018-02-24T11:56:55.116Z,57952
2018-02-24T11:58:05.540Z,64608
2018-02-24T11:59:15.767Z,71808
2018-02-24T12:00:25.415Z,58368
2018-02-24T12:01:35.594Z,47840
2018-02-24T12:02:45.303Z,53216
2018-02-24T12:03:55.496Z,17824
2018-02-24T12:05:05.656Z,53280
2018-02-24T12:06:15.585Z,67616
2018-02-24T12:07:25.141Z,66944
2018-02-24T12:08:35.036Z,59616
2018-02-24T12:09:45.233Z,53248
2018-02-24T12:10:54.852Z,56128
2018-02-24T12:12:05.094Z,69952
2018-02-24T12:13:15.325Z,70912
2018-02-24T12:14:25.615Z,57696
2018-02-24T12:15:35.590Z,61120
2018-02-24T12:17:17.290Z,55872
2018-02-24T12:18:27.262Z,54944
2018-02-24T12:19:37.564Z,55520
2018-02-24T12:20:47.752Z,56672
2018-02-24T12:21:49.413Z,56640
2018-02-24T12:22:59.378Z,55200
2018-02-24T12:24:09.582Z,62720
2018-02-24T12:25:19.479Z,58944
2018-02-24T12:26:29.665Z,59104
2018-02-24T12:27:39.964Z,61984
2018-02-24T12:28:50.219Z,62944
2018-02-24T12:30:00.402Z,68384
2018-02-24T12:31:10.693Z,64736
2018-02-24T12:32:20.854Z,53920
2018-02-24T12:33:30.822Z,59232
2018-02-24T12:35:12.615Z,62144
2018-02-24T12:36:22.840Z,66176
2018-02-24T12:37:33.045Z,70240
2018-02-24T12:38:43.089Z,59584
2018-02-24T12:39:53.294Z,62080
2018-02-24T12:41:03.289Z,62496
2018-02-24T12:42:13.479Z,53312
2018-02-24T12:43:23.705Z,58528
2018-02-24T12:44:33.645Z,58784
2018-02-24T12:45:43.837Z,54880
2018-02-24T12:46:54.057Z,61760
2018-02-24T12:48:04.124Z,61216
2018-02-24T12:49:13.954Z,59072
2018-02-24T12:50:24.350Z,61664
2018-02-24T12:51:34.632Z,57632
2018-02-24T12:52:44.440Z,51904
2018-02-24T12:53:54.714Z,56736
2018-02-24T12:55:04.748Z,63520
2018-02-24T12:56:14.993Z,57600
2018-02-24T12:57:25.228Z,50112
2018-02-24T12:58:34.860Z,55552
2018-02-24T12:59:45.143Z,55232
2018-02-24T13:00:54.454Z,57824
2018-02-24T13:02:04.673Z,65760
2018-02-24T13:03:14.644Z,16608
2018-02-24T13:04:24.822Z,50496
2018-02-24T13:05:34.451Z,57344
2018-02-24T13:06:44.412Z,56000
2018-02-24T13:07:54.684Z,47936
2018-02-24T13:09:04.290Z,51840
2018-02-24T13:10:14.491Z,59744
2018-02-24T13:11:24.657Z,57088
2018-02-24T13:12:34.844Z,53664
2018-02-24T13:13:45.027Z,52704
2018-02-24T13:14:54.677Z,49408
2018-02-24T13:16:04.390Z,47168
2018-02-24T13:17:14.346Z,49472
2018-02-24T13:18:24.613Z,37472
2018-02-24T13:19:34.837Z,37760
2018-02-24T13:20:45.056Z,42432
2018-02-24T13:21:55.321Z,48864
2018-02-24T13:23:05.592Z,49440
2018-02-24T13:24:15.897Z,47136
2018-02-24T13:25:26.228Z,44896
2018-02-24T13:26:36.305Z,39872
2018-02-24T13:27:46.342Z,51040
2018-02-24T13:28:56.510Z,35200
2018-02-24T13:30:06.205Z,49568
2018-02-24T13:31:16.433Z,57408
2018-02-24T13:32:26.737Z,50752
2018-02-24T13:33:36.942Z,12536
2018-02-24T13:34:47.176Z,11652
2018-02-24T13:35:57.405Z,37184
2018-02-24T13:37:07.992Z,11120
2018-02-24T13:38:18.267Z,20704
2018-02-24T13:39:28.451Z,42560
2018-02-24T13:40:38.350Z,50944
2018-02-24T13:41:48.405Z,45248
2018-02-24T13:42:58.647Z,43520
2018-02-24T13:44:08.823Z,34624
2018-02-24T13:45:19.024Z,44064
2018-02-24T13:46:29.255Z,45504
2018-02-24T13:47:38.980Z,39616
2018-02-24T13:48:49.155Z,42688
2018-02-24T13:49:59.193Z,43392
2018-02-24T13:51:09.418Z,43712
2018-02-24T13:52:19.716Z,45440
2018-02-24T13:53:29.952Z,42368
2018-02-24T13:54:39.773Z,40256
2018-02-24T13:55:50.054Z,39872
2018-02-24T13:57:00.322Z,37568
2018-02-24T13:58:10.148Z,41056
2018-02-24T13:59:19.739Z,47296
2018-02-24T14:00:29.919Z,49184
2018-02-24T14:01:40.171Z,45024
2018-02-24T14:02:50.404Z,40736
2018-02-24T14:04:00.675Z,41280
2018-02-24T14:05:10.889Z,45120
2018-02-24T14:06:20.881Z,41920
2018-02-24T14:07:31.120Z,42976
2018-02-24T14:08:41.036Z,41920
2018-02-24T14:09:50.713Z,37728
2018-02-24T14:11:00.978Z,35744
2018-02-24T14:12:11.194Z,30496
2018-02-24T14:13:21.387Z,32448
2018-02-24T14:14:31.564Z,28000
2018-02-24T14:15:41.767Z,41600
2018-02-24T14:16:52.072Z,44608
2018-02-24T14:18:02.015Z,41952
2018-02-24T14:19:12.249Z,39136
2018-02-24T14:20:22.497Z,38176
2018-02-24T14:21:32.995Z,34816
2018-02-24T14:22:43.180Z,35328
2018-02-24T14:23:54.353Z,35104
2018-02-24T14:25:04.308Z,36992
2018-02-24T14:26:13.995Z,36544
2018-02-24T14:27:24.264Z,34176
2018-02-24T14:28:34.435Z,34560
2018-02-24T14:29:44.996Z,35904
2018-02-24T14:30:55.595Z,35776
2018-02-24T14:32:05.545Z,36608
2018-02-24T14:33:15.717Z,34624
2018-02-24T14:34:25.726Z,29664
2018-02-24T14:35:35.715Z,33088
2018-02-24T14:36:45.947Z,35552
2018-02-24T14:37:56.099Z,32320
2018-02-24T14:39:06.015Z,30336
2018-02-24T14:40:15.950Z,33184
2018-02-24T14:41:25.891Z,34496
2018-02-24T14:42:36.139Z,30592
2018-02-24T14:43:46.370Z,31808
2018-02-24T14:44:56.603Z,28128
2018-02-24T14:46:06.520Z,28032
2018-02-24T14:47:16.131Z,29280
2018-02-24T14:48:26.033Z,30624
2018-02-24T14:49:36.308Z,30496
2018-02-24T14:50:46.568Z,30016
2018-02-24T14:51:57.010Z,29888
2018-02-24T14:53:07.198Z,27968
2018-02-24T14:54:17.541Z,27712
2018-02-24T14:55:27.765Z,26720
2018-02-24T14:56:38.001Z,13024
2018-02-24T14:57:48.348Z,9284
2018-02-24T14:58:58.509Z,15776
2018-02-24T15:00:08.765Z,18528
2018-02-24T15:01:18.990Z,10436
2018-02-24T15:02:28.702Z,24928
2018-02-24T15:03:38.654Z,24896
2018-02-24T15:04:48.868Z,23744
2018-02-24T15:05:58.966Z,22880
2018-02-24T15:07:09.182Z,24032
2018-02-24T15:08:18.600Z,21536
2018-02-24T15:09:29.045Z,15808
2018-02-24T15:10:39.347Z,13824
2018-02-24T15:11:49.535Z,20352
2018-02-24T15:12:59.210Z,20128
2018-02-24T15:14:09.459Z,19680
2018-02-24T15:15:20.662Z,19680
2018-02-24T15:16:30.727Z,19968
2018-02-24T15:17:40.382Z,19072
2018-02-24T15:18:50.596Z,19040
2018-02-24T15:20:00.570Z,18624
2018-02-24T15:21:10.846Z,18688
2018-02-24T15:22:21.088Z,18720
2018-02-24T15:23:31.049Z,17920
2018-02-24T15:24:41.274Z,17440
2018-02-24T15:25:51.672Z,17120
2018-02-24T15:27:01.564Z,16576
2018-02-24T15:28:11.624Z,16128
2018-02-24T15:29:21.888Z,15264
2018-02-24T15:30:31.905Z,14496
2018-02-24T15:31:42.340Z,11156
2018-02-24T15:32:52.664Z,6756
2018-02-24T15:34:02.433Z,4836
2018-02-24T15:35:12.656Z,4332
2018-02-24T15:36:22.677Z,3264
2018-02-24T15:37:32.935Z,3104
2018-02-24T15:38:43.152Z,2948
2018-02-24T15:39:53.120Z,3248
2018-02-24T15:41:03.189Z,3076
2018-02-24T15:42:13.137Z,2660
2018-02-24T15:43:23.378Z,2612
2018-02-24T15:44:33.565Z,2788
2018-02-24T15:45:43.904Z,2680
2018-02-24T15:46:54.204Z,2532
2018-02-24T15:48:04.182Z,2408
2018-02-24T15:49:14.844Z,2344
2018-02-24T15:50:25.436Z,2280
2018-02-24T15:51:35.635Z,2252
2018-02-24T15:52:46.139Z,2204
2018-02-24T15:53:55.807Z,2156
2018-02-24T15:55:05.969Z,2108
2018-02-24T15:56:16.365Z,2064
2018-02-24T15:57:26.548Z,2016
2018-02-24T15:58:36.527Z,1952
2018-02-24T15:59:46.743Z,1900
2018-02-24T16:00:56.681Z,1840
2018-02-24T16:02:06.622Z,1792
2018-02-24T16:03:16.419Z,1740
2018-02-24T16:04:26.745Z,1684
2018-02-24T16:05:36.981Z,1636
2018-02-24T16:06:47.188Z,1584
2018-02-24T16:07:57.149Z,1532
2018-02-24T16:09:07.551Z,1484
2018-02-24T16:10:17.729Z,1432